Terminal Aerodrome Forecast
Issued by NWS

Home | Current Version | Previous Version | Text Only | Print | Product List | Glossary On
Versions: 1 2 3 4 5 6 7 8 9 10 11 12 13 14 15 16 17 18 19 20 21 22
000
FTUS44 KLIX 251724
TAFGPT
TAF
KGPT 251724Z 2518/2618 22012KT P6SM BKN020
      TEMPO 2518/2522 VRB20G30KT 1SM TSRA OVC012CB
     FM260000 21009KT P6SM BKN250
     FM260900 24007KT 5SM BR BKN015
     FM261500 26005KT P6SM SCT020=

USA.gov is the U.S. government's official web portal to all federal, state and local government web resources and services.